createdAt,value
2022-08-18T00:01:13.414Z,83.69
2022-08-18T00:03:57.318Z,83.86
2022-08-18T00:06:31.685Z,83.94
2022-08-18T00:09:01.111Z,83.98
2022-08-18T00:11:41.071Z,84.01
2022-08-18T00:14:22.208Z,83.82
2022-08-18T00:16:52.774Z,84.52
2022-08-18T00:19:27.856Z,84.73
2022-08-18T00:22:14.655Z,85.18
2022-08-18T00:24:47.658Z,85.16
2022-08-18T00:27:21.821Z,85.15
2022-08-18T00:29:53.229Z,85.44
2022-08-18T00:32:23.505Z,86.11
2022-08-18T00:34:51.803Z,86.66
2022-08-18T00:37:19.879Z,87.25
2022-08-18T00:39:48.327Z,87.28
2022-08-18T00:42:28.811Z,86.98
2022-08-18T00:45:04.722Z,87.36
2022-08-18T00:47:42.719Z,87.08
2022-08-18T00:50:16.988Z,86.75
2022-08-18T00:52:54.157Z,85.89
2022-08-18T00:55:23.782Z,86.19
2022-08-18T00:57:55.877Z,86.08
2022-08-18T01:00:25.535Z,85.93
2022-08-18T01:02:57.633Z,85.47
2022-08-18T01:05:30.998Z,85.77
2022-08-18T01:07:59.099Z,85.94
2022-08-18T01:10:27.778Z,86.82
2022-08-18T01:12:58.508Z,86.73
2022-08-18T01:15:30.410Z,86.34
2022-08-18T01:18:18.953Z,86.95
2022-08-18T01:21:17.073Z,88.52
2022-08-18T01:23:47.993Z,89.67
2022-08-18T01:26:17.025Z,90.09
2022-08-18T01:28:47.430Z,90.25
2022-08-18T01:31:34.150Z,90.51
2022-08-18T01:34:02.494Z,90.22
2022-08-18T01:36:30.471Z,90.29
2022-08-18T01:38:59.651Z,89.40
2022-08-18T01:41:30.842Z,89.39
2022-08-18T01:44:00.261Z,88.27
2022-08-18T01:46:29.338Z,87.50
2022-08-18T01:48:58.525Z,87.61
2022-08-18T01:51:39.535Z,87.91
2022-08-18T01:54:14.502Z,87.57
2022-08-18T01:56:43.858Z,88.20
2022-08-18T01:59:14.728Z,88.92
2022-08-18T02:01:48.549Z,89.45
2022-08-18T02:04:41.354Z,89.46
2022-08-18T02:07:12.396Z,90.36
2022-08-18T02:09:44.691Z,90.62
2022-08-18T02:12:13.279Z,90.53
2022-08-18T02:14:42.204Z,90.10
2022-08-18T02:17:12.500Z,90.38
2022-08-18T02:19:44.679Z,90.07
2022-08-18T02:22:16.024Z,90.33
2022-08-18T02:24:45.734Z,90.36
2022-08-18T02:27:15.856Z,90.05
2022-08-18T02:29:43.762Z,89.70
2022-08-18T02:32:11.658Z,90.03
2022-08-18T02:34:40.899Z,90.25
2022-08-18T02:37:13.105Z,89.61
2022-08-18T02:39:43.156Z,89.81
2022-08-18T02:42:14.676Z,89.81
2022-08-18T02:44:42.665Z,89.64
2022-08-18T02:47:10.846Z,89.71
2022-08-18T02:49:38.742Z,89.85
2022-08-18T02:52:07.251Z,90.46
2022-08-18T02:54:35.608Z,91.11
2022-08-18T02:57:08.097Z,91.39
2022-08-18T02:59:40.977Z,91.41
2022-08-18T03:02:11.404Z,92.34
2022-08-18T03:04:39.554Z,92.60
2022-08-18T03:07:09.516Z,92.36
2022-08-18T03:09:37.907Z,92.71
2022-08-18T03:12:08.550Z,93.04
2022-08-18T03:14:39.909Z,93.02
2022-08-18T03:17:09.580Z,93.21
2022-08-18T03:19:38.223Z,93.58
2022-08-18T03:22:28.160Z,94.26
2022-08-18T03:24:56.890Z,94.91
2022-08-18T03:27:24.999Z,95.42
2022-08-18T03:29:54.267Z,95.35
2022-08-18T03:32:22.672Z,95.55
2022-08-18T03:34:50.825Z,95.00
2022-08-18T03:37:18.713Z,95.50
2022-08-18T03:39:46.852Z,96.01
2022-08-18T03:42:14.830Z,96.23
2022-08-18T03:44:42.697Z,95.81
2022-08-18T03:47:12.249Z,94.91
2022-08-18T03:49:41.788Z,93.98
2022-08-18T03:52:10.731Z,93.59
2022-08-18T03:54:39.542Z,92.93
2022-08-18T03:57:09.454Z,92.90
2022-08-18T03:59:38.188Z,92.45
2022-08-18T04:02:06.538Z,92.29
2022-08-18T04:04:36.065Z,92.19
2022-08-18T04:07:09.138Z,92.28
2022-08-18T04:09:39.265Z,89.06
2022-08-18T04:12:16.271Z,88.17
2022-08-18T04:14:48.003Z,86.10
2022-08-18T04:17:17.078Z,85.23
2022-08-18T04:19:46.995Z,84.66
2022-08-18T04:22:17.290Z,84.64
2022-08-18T04:24:46.630Z,84.67
2022-08-18T04:27:14.646Z,83.81
2022-08-18T04:29:42.955Z,83.95
2022-08-18T04:32:11.053Z,83.38
2022-08-18T04:34:39.091Z,83.64
2022-08-18T04:37:10.997Z,83.97
2022-08-18T04:39:39.180Z,83.74
2022-08-18T04:42:07.286Z,83.88
2022-08-18T04:44:37.863Z,83.65
2022-08-18T04:47:07.531Z,83.23
2022-08-18T04:49:35.709Z,83.05
2022-08-18T04:52:39.966Z,82.79
2022-08-18T04:55:11.925Z,82.82
2022-08-18T04:57:42.595Z,82.59
2022-08-18T05:00:12.889Z,83.03
2022-08-18T05:02:40.894Z,82.93
2022-08-18T05:05:09.773Z,82.74
2022-08-18T05:07:38.073Z,82.68
2022-08-18T05:10:06.791Z,83.07
2022-08-18T05:12:36.479Z,83.20
2022-08-18T05:15:06.579Z,84.53
2022-08-18T05:17:34.465Z,84.43
2022-08-18T05:20:06.053Z,83.80
2022-08-18T05:22:39.126Z,83.44
2022-08-18T05:25:08.484Z,83.78
2022-08-18T05:27:40.156Z,81.75
2022-08-18T05:30:09.907Z,80.72
2022-08-18T05:32:48.653Z,80.13
2022-08-18T05:35:23.197Z,80.70
2022-08-18T05:38:20.286Z,80.57
2022-08-18T05:41:01.123Z,80.46
2022-08-18T05:43:30.381Z,79.37
2022-08-18T05:46:00.396Z,78.93
2022-08-18T05:48:28.359Z,78.87
2022-08-18T05:51:02.417Z,78.92
2022-08-18T05:53:45.285Z,79.67
2022-08-18T05:56:32.113Z,79.09
2022-08-18T05:59:02.412Z,78.90
2022-08-18T06:01:34.766Z,79.43
2022-08-18T06:04:07.580Z,76.73
2022-08-18T06:06:38.093Z,78.19
2022-08-18T06:09:13.201Z,78.18
2022-08-18T06:11:41.088Z,75.32
2022-08-18T06:14:11.019Z,75.65
2022-08-18T06:16:50.328Z,75.62
2022-08-18T06:19:33.591Z,75.38
2022-08-18T06:22:10.993Z,73.44
2022-08-18T06:24:47.078Z,74.30
2022-08-18T06:27:23.706Z,72.22
2022-08-18T06:30:05.247Z,72.27
2022-08-18T06:32:47.726Z,72.47
2022-08-18T06:35:20.366Z,72.18
2022-08-18T06:38:13.329Z,72.11
2022-08-18T06:40:41.865Z,70.76
2022-08-18T06:43:15.801Z,71.20
2022-08-18T06:45:48.533Z,70.99
2022-08-18T06:48:26.861Z,70.46
2022-08-18T06:51:00.369Z,69.99
2022-08-18T06:53:53.293Z,69.60
2022-08-18T06:56:26.316Z,69.04
2022-08-18T06:58:55.368Z,69.43
2022-08-18T07:01:26.103Z,68.47
2022-08-18T07:03:57.155Z,68.78
2022-08-18T07:06:30.252Z,68.55
2022-08-18T07:09:21.658Z,68.19
2022-08-18T07:12:02.340Z,70.24
2022-08-18T07:14:30.405Z,68.83
2022-08-18T07:17:11.563Z,67.79
2022-08-18T07:19:39.834Z,66.92
2022-08-18T07:22:11.277Z,67.13
2022-08-18T07:24:42.700Z,67.87
2022-08-18T07:27:13.826Z,67.08
2022-08-18T07:29:59.881Z,67.69
2022-08-18T07:32:36.578Z,67.43
2022-08-18T07:35:11.917Z,67.29
2022-08-18T07:37:48.832Z,66.48
2022-08-18T07:40:26.662Z,66.73
2022-08-18T07:43:01.551Z,66.19
2022-08-18T07:45:37.151Z,65.80
2022-08-18T07:48:36.973Z,65.68
2022-08-18T07:51:11.150Z,65.59
2022-08-18T07:53:55.826Z,65.03
2022-08-18T07:56:33.663Z,65.39
2022-08-18T07:59:08.461Z,65.86
2022-08-18T08:01:42.299Z,65.98
2022-08-18T08:04:25.790Z,65.84
2022-08-18T08:07:23.324Z,65.19
2022-08-18T08:09:59.489Z,64.09
2022-08-18T08:12:34.588Z,64.22
2022-08-18T08:15:13.685Z,63.09
2022-08-18T08:17:50.956Z,63.43
2022-08-18T08:20:32.506Z,63.71
2022-08-18T08:23:17.358Z,64.55
2022-08-18T08:26:02.959Z,63.09
2022-08-18T08:28:43.917Z,63.20
2022-08-18T08:31:37.384Z,63.49
2022-08-18T08:34:14.197Z,62.73
2022-08-18T08:36:47.284Z,63.77
2022-08-18T08:39:22.403Z,62.14
2022-08-18T08:42:28.913Z,63.42
2022-08-18T08:44:59.035Z,64.12
2022-08-18T08:47:36.406Z,62.90
2022-08-18T08:50:09.157Z,62.27
2022-08-18T08:52:47.195Z,61.05
2022-08-18T08:55:18.750Z,60.77
2022-08-18T08:57:53.664Z,59.38
2022-08-18T09:00:26.762Z,59.65
2022-08-18T09:03:07.734Z,60.24
2022-08-18T09:05:40.031Z,60.72
2022-08-18T09:08:29.817Z,60.33
2022-08-18T09:11:26.758Z,60.53
2022-08-18T09:14:17.203Z,61.03
2022-08-18T09:16:55.731Z,61.98
2022-08-18T09:19:54.556Z,61.55
2022-08-18T09:22:37.486Z,58.46
2022-08-18T09:25:30.432Z,59.08
2022-08-18T09:28:11.867Z,57.72
2022-08-18T09:30:45.140Z,58.11
2022-08-18T09:33:35.319Z,58.63
2022-08-18T09:36:18.428Z,57.29
2022-08-18T09:39:10.693Z,57.89
2022-08-18T09:41:51.024Z,56.48
2022-08-18T09:44:52.026Z,57.36
2022-08-18T09:47:53.939Z,56.42
2022-08-18T09:50:52.327Z,55.29
2022-08-18T09:54:08.623Z,54.36
2022-08-18T09:57:16.655Z,53.20
2022-08-18T10:00:19.512Z,51.86
2022-08-18T10:03:14.635Z,53.22
2022-08-18T10:06:03.265Z,54.71
2022-08-18T10:08:55.276Z,54.31
2022-08-18T10:11:38.746Z,53.01
2022-08-18T10:14:25.727Z,52.57
2022-08-18T10:17:23.566Z,51.82
2022-08-18T10:19:58.087Z,49.31
2022-08-18T10:22:40.051Z,49.23
2022-08-18T10:25:22.751Z,51.91
2022-08-18T10:27:55.620Z,50.25
2022-08-18T10:30:57.569Z,47.72
2022-08-18T10:34:19.118Z,48.23
2022-08-18T10:36:53.366Z,49.53
2022-08-18T10:39:25.525Z,48.32
2022-08-18T10:42:06.120Z,47.33
2022-08-18T10:44:39.414Z,47.30
2022-08-18T10:47:11.952Z,47.37
2022-08-18T10:53:16.942Z,45.10
2022-08-18T10:55:51.037Z,46.32
2022-08-18T10:58:51.592Z,45.74
2022-08-18T11:01:40.523Z,44.29
2022-08-18T11:04:27.472Z,44.77
2022-08-18T11:07:07.764Z,44.69
2022-08-18T11:09:41.508Z,43.86
2022-08-18T11:12:13.740Z,44.97
2022-08-18T11:14:53.451Z,43.87
2022-08-18T11:17:36.819Z,45.08
2022-08-18T11:20:11.887Z,45.54
2022-08-18T11:22:40.013Z,43.15
2022-08-18T11:25:24.227Z,44.39
2022-08-18T11:27:54.469Z,43.37
2022-08-18T11:30:30.430Z,42.02
2022-08-18T11:33:02.660Z,41.21
2022-08-18T11:35:34.215Z,40.83
2022-08-18T11:38:04.588Z,39.75
2022-08-18T11:43:41.260Z,40.73
2022-08-18T11:46:24.131Z,40.78
2022-08-18T11:48:56.980Z,40.23
2022-08-18T11:51:28.532Z,40.31
2022-08-18T11:54:00.140Z,39.55
2022-08-18T11:56:35.976Z,39.70
2022-08-18T11:59:08.637Z,38.85
2022-08-18T12:01:48.565Z,39.52
2022-08-18T12:04:28.987Z,39.59
2022-08-18T12:07:01.857Z,39.34
2022-08-18T12:12:31.721Z,38.37
2022-08-18T12:15:13.986Z,37.99
2022-08-18T12:20:34.841Z,37.88
2022-08-18T12:23:02.817Z,37.24
2022-08-18T12:25:31.215Z,37.52
2022-08-18T12:28:00.689Z,38.05
2022-08-18T12:30:28.948Z,38.07
2022-08-18T12:33:05.845Z,36.86
2022-08-18T12:35:41.861Z,36.70
2022-08-18T12:38:12.365Z,38.45
2022-08-18T12:40:42.192Z,38.17
2022-08-18T12:43:11.821Z,37.72
2022-08-18T12:45:39.945Z,37.69
2022-08-18T12:48:10.514Z,38.64
2022-08-18T12:50:49.857Z,37.74
2022-08-18T12:53:30.746Z,38.15
2022-08-18T12:56:08.568Z,37.46
2022-08-18T12:58:41.027Z,36.74
2022-08-18T13:01:09.073Z,35.90
2022-08-18T13:03:38.231Z,36.53
2022-08-18T13:06:11.542Z,36.76
2022-08-18T13:08:49.871Z,36.17
2022-08-18T13:11:23.780Z,36.67
2022-08-18T13:13:57.080Z,37.13
2022-08-18T13:16:30.614Z,37.25
2022-08-18T13:19:08.068Z,35.40
2022-08-18T13:21:41.442Z,35.26
2022-08-18T13:24:12.806Z,34.22
2022-08-18T13:26:45.834Z,34.60
2022-08-18T13:29:17.514Z,34.81
2022-08-18T13:31:55.480Z,34.32
2022-08-18T13:34:24.505Z,35.34
2022-08-18T13:36:52.686Z,35.32
2022-08-18T13:39:22.653Z,36.25
2022-08-18T13:41:54.399Z,35.50
2022-08-18T13:44:25.703Z,35.11
2022-08-18T13:46:56.002Z,34.42
2022-08-18T13:49:30.055Z,34.83
2022-08-18T13:52:00.736Z,34.63
2022-08-18T13:54:33.901Z,35.36
2022-08-18T13:57:04.351Z,35.50
2022-08-18T13:59:34.106Z,35.21
2022-08-18T14:02:03.657Z,35.23
2022-08-18T14:04:33.418Z,35.84
2022-08-18T14:07:08.934Z,36.56
2022-08-18T14:09:38.484Z,36.84
2022-08-18T14:12:15.488Z,36.58
2022-08-18T14:14:52.371Z,36.95
2022-08-18T14:17:22.546Z,37.43
2022-08-18T14:20:10.274Z,37.71
2022-08-18T14:22:56.238Z,37.74
2022-08-18T14:25:42.205Z,38.42
2022-08-18T14:28:11.876Z,37.56
2022-08-18T14:30:44.222Z,38.16
2022-08-18T14:33:49.426Z,38.90
2022-08-18T14:36:12.225Z,38.30
2022-08-18T14:38:40.677Z,38.99
2022-08-18T14:41:13.505Z,39.42
2022-08-18T14:44:10.301Z,38.55
2022-08-18T14:46:37.350Z,38.48
2022-08-18T14:49:09.369Z,38.38
2022-08-18T14:51:39.177Z,38.83
2022-08-18T14:54:07.156Z,38.91
2022-08-18T14:56:38.856Z,39.30
2022-08-18T14:59:08.085Z,39.41
2022-08-18T15:01:42.872Z,38.19
2022-08-18T15:04:19.009Z,36.38
2022-08-18T15:06:56.058Z,37.26
2022-08-18T15:09:26.795Z,46.21
2022-08-18T15:11:56.336Z,58.61
2022-08-18T15:14:26.578Z,66.13
2022-08-18T15:17:02.821Z,75.16
2022-08-18T15:20:01.575Z,82.06
2022-08-18T15:22:36.337Z,88.02
2022-08-18T15:25:24.010Z,92.56
2022-08-18T15:27:53.469Z,97.40
2022-08-18T15:30:22.170Z,100.00
2022-08-18T15:32:51.854Z,100.00
2022-08-18T15:35:21.385Z,100.00
2022-08-18T15:37:51.482Z,100.00
2022-08-18T15:40:30.776Z,100.00
2022-08-18T15:43:10.045Z,100.00
2022-08-18T15:45:43.155Z,100.00
2022-08-18T15:48:22.260Z,100.00
2022-08-18T15:50:51.968Z,100.00
2022-08-18T15:53:22.309Z,100.00
2022-08-18T15:55:50.866Z,100.00
2022-08-18T15:58:22.404Z,100.00
2022-08-18T16:00:54.809Z,100.00
2022-08-18T16:03:24.132Z,100.00
2022-08-18T16:05:54.499Z,100.00
2022-08-18T16:08:24.151Z,100.00
2022-08-18T16:10:53.799Z,100.00
2022-08-18T16:13:22.771Z,100.00
2022-08-18T16:15:50.782Z,100.00
2022-08-18T16:18:21.007Z,100.00
2022-08-18T16:20:52.670Z,100.00
2022-08-18T16:23:24.538Z,100.00
2022-08-18T16:25:52.474Z,100.00
2022-08-18T16:28:34.602Z,100.00
2022-08-18T16:31:03.480Z,100.00
2022-08-18T16:33:31.811Z,100.00
2022-08-18T16:36:06.024Z,100.00
2022-08-18T16:38:34.214Z,100.00
2022-08-18T16:41:11.282Z,100.00
2022-08-18T16:43:44.391Z,100.00
2022-08-18T16:46:14.595Z,100.00
2022-08-18T16:48:46.070Z,100.00
2022-08-18T16:51:18.782Z,100.00
2022-08-18T16:53:52.209Z,100.00
2022-08-18T16:56:22.487Z,100.00
2022-08-18T16:59:08.365Z,100.00
2022-08-18T17:01:54.980Z,100.00
2022-08-18T17:04:26.181Z,100.00
2022-08-18T17:06:56.653Z,100.00
2022-08-18T17:09:25.430Z,100.00
2022-08-18T17:11:54.328Z,100.00
2022-08-18T17:14:23.501Z,100.00
2022-08-18T17:16:54.878Z,100.00
2022-08-18T17:19:24.198Z,100.00
2022-08-18T17:21:52.230Z,100.00
2022-08-18T17:24:31.314Z,100.00
2022-08-18T17:27:25.770Z,100.00
2022-08-18T17:30:03.405Z,100.00
2022-08-18T17:32:42.834Z,100.00
2022-08-18T17:35:15.279Z,100.00
2022-08-18T17:37:52.201Z,100.00
2022-08-18T17:40:28.543Z,100.00
2022-08-18T17:42:58.599Z,100.00
2022-08-18T17:45:29.570Z,100.00
2022-08-18T17:48:03.197Z,100.00
2022-08-18T17:50:53.815Z,100.00
2022-08-18T17:53:23.452Z,100.00
2022-08-18T17:56:00.009Z,100.00
2022-08-18T17:58:39.307Z,100.00
2022-08-18T18:01:07.786Z,100.00
2022-08-18T18:03:35.956Z,100.00
2022-08-18T18:06:10.952Z,100.00
2022-08-18T18:08:50.716Z,100.00
2022-08-18T18:11:26.563Z,100.00
2022-08-18T18:13:54.728Z,100.00
2022-08-18T18:16:27.663Z,100.00
2022-08-18T18:19:01.151Z,100.00
2022-08-18T18:21:55.272Z,100.00
2022-08-18T18:24:24.061Z,100.00
2022-08-18T18:26:53.524Z,100.00
2022-08-18T18:29:28.228Z,100.00
2022-08-18T18:32:01.950Z,100.00
2022-08-18T18:34:39.489Z,100.00
2022-08-18T18:37:25.235Z,100.00
2022-08-18T18:39:58.109Z,100.00
2022-08-18T18:42:30.314Z,100.00
2022-08-18T18:45:00.212Z,100.00
2022-08-18T18:47:48.776Z,100.00
2022-08-18T18:50:25.919Z,100.00
2022-08-18T18:53:09.156Z,100.00
2022-08-18T18:55:46.833Z,100.00
2022-08-18T18:58:27.466Z,100.00
2022-08-18T19:00:59.442Z,100.00
2022-08-18T19:03:34.183Z,100.00
2022-08-18T19:06:14.293Z,100.00
2022-08-18T19:08:50.570Z,100.00
2022-08-18T19:11:25.794Z,100.00
2022-08-18T19:14:02.127Z,100.00
2022-08-18T19:16:34.716Z,100.00
2022-08-18T19:19:37.799Z,100.00
2022-08-18T19:22:06.677Z,100.00
2022-08-18T19:24:40.270Z,100.00
2022-08-18T19:27:15.630Z,100.00
2022-08-18T19:29:47.428Z,100.00
2022-08-18T19:32:19.813Z,100.00
2022-08-18T19:34:52.492Z,100.00
2022-08-18T19:37:32.282Z,100.00
2022-08-18T19:40:09.315Z,100.00
2022-08-18T19:42:43.379Z,100.00
2022-08-18T19:45:21.513Z,100.00
2022-08-18T19:47:55.601Z,100.00
2022-08-18T19:50:30.620Z,100.00
2022-08-18T19:53:27.056Z,100.00
2022-08-18T19:56:12.533Z,100.00
2022-08-18T19:59:18.666Z,100.00
2022-08-18T20:02:02.560Z,100.00
2022-08-18T20:04:57.353Z,100.00
2022-08-18T20:07:52.040Z,100.00
2022-08-18T20:10:50.227Z,100.00
2022-08-18T20:13:33.722Z,100.00
2022-08-18T20:16:28.663Z,100.00
2022-08-18T20:19:42.304Z,100.00
2022-08-18T20:22:27.774Z,100.00
2022-08-18T20:24:59.572Z,100.00
2022-08-18T20:27:35.744Z,100.00
2022-08-18T20:30:27.066Z,100.00
2022-08-18T20:33:11.006Z,100.00
2022-08-18T20:35:45.861Z,100.00
2022-08-18T20:38:21.856Z,100.00
2022-08-18T20:40:52.296Z,100.00
2022-08-18T20:43:32.702Z,100.00
2022-08-18T20:46:19.175Z,100.00
2022-08-18T20:49:06.124Z,100.00
2022-08-18T20:51:51.989Z,100.00
2022-08-18T20:54:32.880Z,100.00
2022-08-18T20:57:04.178Z,100.00
2022-08-18T20:59:35.869Z,100.00
2022-08-18T21:02:07.368Z,100.00
2022-08-18T21:04:53.549Z,100.00
2022-08-18T21:07:36.624Z,100.00
2022-08-18T21:10:12.783Z,100.00
2022-08-18T21:12:52.649Z,100.00
2022-08-18T21:15:24.299Z,100.00
2022-08-18T21:18:01.485Z,100.00
2022-08-18T21:20:30.428Z,100.00
2022-08-18T21:23:06.583Z,100.00
2022-08-18T21:25:35.382Z,100.00
2022-08-18T21:28:04.155Z,100.00
2022-08-18T21:30:32.954Z,100.00
2022-08-18T21:33:02.026Z,100.00
2022-08-18T21:35:32.384Z,100.00
2022-08-18T21:38:01.851Z,100.00
2022-08-18T21:40:39.146Z,100.00
2022-08-18T21:43:08.237Z,100.00
2022-08-18T21:45:47.390Z,100.00
2022-08-18T21:48:16.153Z,100.00
2022-08-18T21:50:51.664Z,100.00
2022-08-18T21:53:28.042Z,100.00
2022-08-18T21:55:59.558Z,100.00
2022-08-18T21:58:32.887Z,100.00
2022-08-18T22:01:24.221Z,100.00
2022-08-18T22:03:57.745Z,100.00
2022-08-18T22:06:36.114Z,100.00
2022-08-18T22:09:28.305Z,100.00
2022-08-18T22:12:49.539Z,100.00
2022-08-18T22:15:22.268Z,100.00
2022-08-18T22:17:58.283Z,100.00
2022-08-18T22:20:39.959Z,100.00
2022-08-18T22:23:40.998Z,100.00
2022-08-18T22:26:13.381Z,100.00
2022-08-18T22:28:52.566Z,100.00
2022-08-18T22:31:23.195Z,100.00
2022-08-18T22:33:52.030Z,100.00
2022-08-18T22:36:29.616Z,100.00
2022-08-18T22:38:57.763Z,100.00
2022-08-18T22:41:26.045Z,100.00
2022-08-18T22:43:55.522Z,100.00
2022-08-18T22:46:25.461Z,100.00
2022-08-18T22:48:54.002Z,100.00
2022-08-18T22:51:24.409Z,100.00
2022-08-18T22:53:52.984Z,100.00
2022-08-18T22:56:22.692Z,100.00
2022-08-18T22:59:13.478Z,100.00
2022-08-18T23:01:49.600Z,100.00
2022-08-18T23:04:19.201Z,100.00
2022-08-18T23:06:51.814Z,100.00
2022-08-18T23:09:22.400Z,100.00
2022-08-18T23:11:51.146Z,100.00
2022-08-18T23:14:19.395Z,100.00
2022-08-18T23:16:49.721Z,100.00
2022-08-18T23:19:20.610Z,100.00
2022-08-18T23:21:50.011Z,100.00
2022-08-18T23:24:19.342Z,100.00
2022-08-18T23:26:49.953Z,100.00
2022-08-18T23:29:18.804Z,100.00
2022-08-18T23:31:49.722Z,100.00
2022-08-18T23:34:19.315Z,100.00
2022-08-18T23:36:53.902Z,100.00
2022-08-18T23:39:22.992Z,100.00
2022-08-18T23:41:51.802Z,100.00
2022-08-18T23:44:22.509Z,100.00
2022-08-18T23:46:58.120Z,100.00
2022-08-18T23:49:29.140Z,100.00
2022-08-18T23:51:58.944Z,100.00
2022-08-18T23:54:28.866Z,100.00
2022-08-18T23:56:57.296Z,100.00
2022-08-18T23:59:26.794Z,100.00
